createdAt,value
2022-12-17T00:02:09.486Z,27.30
2022-12-17T00:05:30.017Z,26.70
2022-12-17T00:08:50.334Z,29.10
2022-12-17T00:12:10.681Z,29.40
2022-12-17T00:15:30.981Z,24.90
2022-12-17T00:18:51.176Z,23.90
2022-12-17T00:22:12.344Z,27.10
2022-12-17T00:25:32.789Z,27.10
2022-12-17T00:28:53.083Z,23.20
2022-12-17T00:32:15.362Z,30.20
2022-12-17T00:35:35.625Z,24.70
2022-12-17T00:38:56.061Z,23.00
2022-12-17T00:42:17.142Z,23.00
2022-12-17T00:45:37.291Z,27.40
2022-12-17T00:48:57.630Z,29.30
2022-12-17T00:52:17.940Z,31.30
2022-12-17T00:55:38.427Z,31.60
2022-12-17T00:58:58.830Z,33.30
2022-12-17T01:02:20.783Z,32.10
2022-12-17T01:05:41.467Z,31.00
2022-12-17T01:09:01.698Z,29.70
2022-12-17T01:12:22.219Z,32.90
2022-12-17T01:15:42.662Z,30.60
2022-12-17T01:19:02.860Z,29.20
2022-12-17T01:22:23.462Z,30.50
2022-12-17T01:25:43.762Z,29.30
2022-12-17T01:29:04.259Z,33.90
2022-12-17T01:32:24.579Z,35.00
2022-12-17T01:35:45.119Z,27.50
2022-12-17T01:39:05.175Z,30.40
2022-12-17T01:42:30.156Z,32.10
2022-12-17T01:45:55.115Z,35.10
2022-12-17T01:49:15.357Z,31.30
2022-12-17T01:52:50.731Z,29.20
2022-12-17T01:56:12.541Z,30.80
2022-12-17T01:59:33.021Z,32.40
2022-12-17T02:02:53.563Z,30.30
2022-12-17T02:06:33.806Z,29.00
2022-12-17T02:09:57.148Z,31.90
2022-12-17T02:13:23.204Z,32.30
2022-12-17T02:16:50.912Z,31.20
2022-12-17T02:20:14.345Z,26.90
2022-12-17T02:23:48.319Z,31.20
2022-12-17T02:27:24.262Z,25.40
2022-12-17T02:30:44.622Z,27.70
2022-12-17T02:34:05.841Z,24.50
2022-12-17T02:37:26.751Z,22.40
2022-12-17T02:40:46.949Z,22.70
2022-12-17T02:44:07.652Z,22.30
2022-12-17T02:47:29.016Z,23.10
2022-12-17T02:50:49.884Z,24.20
2022-12-17T02:54:12.535Z,21.60
2022-12-17T02:57:32.731Z,18.00
2022-12-17T03:00:52.745Z,19.80
2022-12-17T03:04:13.322Z,20.70
2022-12-17T03:07:33.760Z,19.60
2022-12-17T03:10:54.079Z,17.90
2022-12-17T03:14:14.621Z,20.90
2022-12-17T03:17:35.019Z,19.00
2022-12-17T03:20:56.803Z,20.20
2022-12-17T03:24:16.911Z,19.10
2022-12-17T03:27:37.247Z,20.90
2022-12-17T03:30:57.767Z,19.00
2022-12-17T03:34:17.916Z,24.40
2022-12-17T03:37:38.276Z,21.40
2022-12-17T03:40:58.526Z,20.10
2022-12-17T03:44:19.236Z,18.40
2022-12-17T03:47:39.427Z,19.60
2022-12-17T03:50:59.622Z,19.90
2022-12-17T03:54:20.006Z,16.00
2022-12-17T03:57:40.420Z,18.60
2022-12-17T04:01:00.796Z,17.70
2022-12-17T04:04:20.762Z,19.10
2022-12-17T04:07:41.309Z,17.70
2022-12-17T04:11:01.636Z,19.70
2022-12-17T04:14:21.702Z,18.70
2022-12-17T04:17:41.659Z,20.70
2022-12-17T04:21:02.248Z,22.10
2022-12-17T04:24:22.674Z,19.00
2022-12-17T04:27:43.205Z,17.50
2022-12-17T04:31:03.748Z,18.60
2022-12-17T04:34:23.733Z,22.70
2022-12-17T04:37:44.031Z,16.20
2022-12-17T04:41:04.476Z,17.10
2022-12-17T04:44:24.677Z,17.00
2022-12-17T04:47:44.962Z,13.90
2022-12-17T04:51:05.572Z,18.20
2022-12-17T04:54:26.072Z,18.90
2022-12-17T04:57:46.517Z,17.90
2022-12-17T05:01:06.809Z,17.60
2022-12-17T05:04:27.370Z,19.30
2022-12-17T05:07:47.569Z,18.10
2022-12-17T05:11:07.666Z,13.90
2022-12-17T05:14:27.947Z,14.80
2022-12-17T05:17:48.351Z,17.10
2022-12-17T05:21:08.664Z,16.20
2022-12-17T05:24:29.049Z,17.80
2022-12-17T05:27:49.547Z,17.60
2022-12-17T05:31:10.120Z,18.80
2022-12-17T05:34:31.898Z,18.80
2022-12-17T05:37:52.181Z,19.80
2022-12-17T05:41:15.241Z,18.20
2022-12-17T05:44:35.434Z,16.80
2022-12-17T05:47:55.934Z,16.40
2022-12-17T05:51:16.232Z,17.60
2022-12-17T05:54:36.586Z,16.60
2022-12-17T05:57:56.950Z,16.40
2022-12-17T06:01:18.395Z,18.00
2022-12-17T06:04:39.016Z,19.20
2022-12-17T06:07:59.659Z,18.30
2022-12-17T06:11:19.943Z,14.10
2022-12-17T06:14:40.241Z,17.60
2022-12-17T06:18:00.483Z,13.80
2022-12-17T06:21:20.641Z,14.30
2022-12-17T06:24:45.703Z,15.90
2022-12-17T06:28:06.558Z,17.90
2022-12-17T06:31:27.117Z,15.40
2022-12-17T06:34:47.398Z,13.10
2022-12-17T06:38:07.823Z,14.10
2022-12-17T06:41:27.946Z,16.80
2022-12-17T06:44:48.450Z,12.00
2022-12-17T06:48:08.544Z,12.20
2022-12-17T06:51:28.994Z,11.10
2022-12-17T06:54:49.232Z,11.50
2022-12-17T06:58:14.469Z,11.40
2022-12-17T07:01:35.200Z,13.70
2022-12-17T07:04:55.521Z,20.80
2022-12-17T07:08:18.923Z,23.50
2022-12-17T07:11:39.120Z,21.90
2022-12-17T07:14:59.206Z,22.80
2022-12-17T07:18:30.663Z,26.60
2022-12-17T07:21:51.142Z,31.00
2022-12-17T07:25:11.563Z,27.60
2022-12-17T07:28:32.701Z,29.40
2022-12-17T07:32:10.037Z,21.50
2022-12-17T07:35:30.230Z,16.90
2022-12-17T07:38:50.976Z,15.40
2022-12-17T07:42:11.228Z,16.00
2022-12-17T07:45:31.592Z,12.70
2022-12-17T07:48:51.809Z,12.10
2022-12-17T07:52:12.504Z,15.50
2022-12-17T07:55:32.811Z,25.50
2022-12-17T07:58:53.266Z,27.00
2022-12-17T08:02:13.711Z,22.00
2022-12-17T08:05:34.359Z,24.10
2022-12-17T08:08:54.568Z,25.10
2022-12-17T08:12:14.762Z,24.50
2022-12-17T08:15:35.248Z,24.50
2022-12-17T08:18:55.662Z,24.30
2022-12-17T08:22:15.711Z,26.50
2022-12-17T08:25:35.851Z,24.50
2022-12-17T08:28:56.045Z,21.90
2022-12-17T08:32:17.562Z,17.90
2022-12-17T08:35:37.675Z,19.50
2022-12-17T08:38:57.949Z,18.60
2022-12-17T08:42:18.096Z,22.80
2022-12-17T08:45:38.203Z,20.10
2022-12-17T08:48:58.531Z,28.80
2022-12-17T08:52:18.831Z,29.10
2022-12-17T08:55:39.067Z,30.50
2022-12-17T08:58:59.519Z,29.70
2022-12-17T09:02:20.148Z,30.20
2022-12-17T09:05:40.568Z,27.10
2022-12-17T09:09:00.603Z,28.00
2022-12-17T09:12:21.216Z,29.00
2022-12-17T09:15:41.549Z,28.70
2022-12-17T09:19:01.617Z,24.60
2022-12-17T09:22:22.071Z,24.00
2022-12-17T09:25:42.247Z,24.70
2022-12-17T09:29:02.806Z,22.90
2022-12-17T09:32:23.167Z,26.10
2022-12-17T09:35:43.501Z,21.10
2022-12-17T09:39:03.489Z,17.40
2022-12-17T09:42:46.758Z,17.70
2022-12-17T09:46:13.595Z,14.80
2022-12-17T09:49:37.230Z,15.20
2022-12-17T09:56:17.935Z,18.30
2022-12-17T09:59:38.470Z,19.00
2022-12-17T10:02:58.831Z,19.20
2022-12-17T10:06:22.829Z,18.40
2022-12-17T10:09:44.449Z,17.20
2022-12-17T10:13:04.922Z,19.20
2022-12-17T10:16:57.815Z,15.10
2022-12-17T10:20:18.116Z,18.50
2022-12-17T10:23:56.722Z,18.60
2022-12-17T10:27:16.870Z,20.70
2022-12-17T10:30:37.295Z,19.00
2022-12-17T10:33:58.661Z,19.60
2022-12-17T10:37:19.252Z,20.10
2022-12-17T10:40:43.065Z,16.80
2022-12-17T10:44:03.334Z,22.20
2022-12-17T10:47:23.734Z,23.30
2022-12-17T10:50:43.978Z,21.30
2022-12-17T10:54:07.715Z,17.30
2022-12-17T10:57:39.055Z,17.40
2022-12-17T11:00:59.743Z,18.70
2022-12-17T11:04:20.031Z,17.50
2022-12-17T11:07:40.476Z,5.50
2022-12-17T11:11:01.373Z,2.80
2022-12-17T11:14:24.993Z,2.60
2022-12-17T11:17:45.450Z,1.90
2022-12-17T11:21:13.683Z,1.80
2022-12-17T11:24:38.013Z,2.20
2022-12-17T11:28:04.260Z,1.90
2022-12-17T11:31:37.093Z,2.10
2022-12-17T11:35:03.763Z,1.90
2022-12-17T11:38:39.841Z,2.50
2022-12-17T11:42:11.573Z,1.60
2022-12-17T11:45:34.944Z,1.40
2022-12-17T11:48:55.391Z,1.70
2022-12-17T11:52:35.623Z,2.80
2022-12-17T11:55:59.943Z,1.60
2022-12-17T11:59:23.348Z,2.20
2022-12-17T12:03:04.470Z,1.90
2022-12-17T12:06:32.310Z,1.30
2022-12-17T12:10:04.393Z,1.00
2022-12-17T12:13:40.510Z,1.10
2022-12-17T12:17:15.761Z,1.20
2022-12-17T12:21:02.168Z,0.90
2022-12-17T12:24:41.565Z,0.90
2022-12-17T12:28:08.154Z,1.10
2022-12-17T12:31:46.460Z,1.00
2022-12-17T12:35:07.179Z,1.60
2022-12-17T12:38:34.997Z,1.70
2022-12-17T12:42:10.916Z,2.00
2022-12-17T12:45:34.143Z,1.80
2022-12-17T12:49:01.230Z,1.60
2022-12-17T12:52:21.843Z,2.30
2022-12-17T12:55:42.035Z,2.00
2022-12-17T12:59:02.433Z,2.10
2022-12-17T13:02:31.629Z,2.10
2022-12-17T13:05:38.794Z,3.20
2022-12-17T13:08:41.106Z,2.30
2022-12-17T13:11:47.164Z,2.50
2022-12-17T13:14:59.267Z,2.90
2022-12-17T13:18:21.049Z,2.10
2022-12-17T13:21:25.626Z,3.30
2022-12-17T13:24:27.596Z,2.10
2022-12-17T13:27:38.469Z,2.40
2022-12-17T13:30:40.029Z,2.50
2022-12-17T13:34:00.530Z,2.10
2022-12-17T13:37:16.114Z,2.40
2022-12-17T13:40:20.437Z,2.90
2022-12-17T13:43:24.816Z,2.20
2022-12-17T13:46:27.939Z,2.00
2022-12-17T13:49:30.847Z,2.30
2022-12-17T13:52:33.754Z,2.50
2022-12-17T13:55:35.196Z,2.80
2022-12-17T13:58:36.940Z,1.90
2022-12-17T14:01:46.316Z,2.80
2022-12-17T14:04:51.740Z,2.60
2022-12-17T14:07:54.530Z,2.70
2022-12-17T14:11:15.432Z,3.10
2022-12-17T14:14:29.887Z,2.80
2022-12-17T14:17:40.772Z,2.80
2022-12-17T14:20:42.734Z,2.70
2022-12-17T14:23:45.237Z,3.20
2022-12-17T14:26:47.895Z,3.00
2022-12-17T14:29:49.477Z,3.20
2022-12-17T14:32:51.326Z,3.60
2022-12-17T14:35:54.716Z,3.00
2022-12-17T14:38:59.892Z,3.10
2022-12-17T14:42:32.754Z,3.10
2022-12-17T14:45:54.292Z,4.70
2022-12-17T14:49:03.624Z,2.80
2022-12-17T14:52:14.495Z,2.70
2022-12-17T14:55:22.499Z,3.20
2022-12-17T14:58:25.285Z,2.80
2022-12-17T15:01:27.207Z,3.20
2022-12-17T15:04:30.140Z,3.80
2022-12-17T15:07:32.106Z,2.70
2022-12-17T15:10:33.662Z,3.10
2022-12-17T15:13:35.323Z,2.40
2022-12-17T15:16:36.917Z,2.90
2022-12-17T15:19:38.416Z,2.90
2022-12-17T15:22:40.157Z,3.40
2022-12-17T15:25:46.588Z,2.50
2022-12-17T15:28:48.637Z,3.30
2022-12-17T15:31:51.116Z,3.20
2022-12-17T15:34:52.777Z,2.60
2022-12-17T15:37:54.436Z,2.60
2022-12-17T15:40:59.261Z,2.60
2022-12-17T15:44:00.930Z,2.50
2022-12-17T15:47:02.524Z,2.70
2022-12-17T15:50:04.793Z,3.00
2022-12-17T15:53:06.780Z,2.40
2022-12-17T15:56:20.677Z,2.50
2022-12-17T15:59:22.541Z,2.90
2022-12-17T16:02:24.368Z,4.40
2022-12-17T16:05:26.178Z,3.50
2022-12-17T16:08:27.926Z,3.50
2022-12-17T16:11:29.586Z,4.10
2022-12-17T16:14:31.142Z,6.70
2022-12-17T16:17:32.701Z,5.10
2022-12-17T16:20:34.359Z,5.30
2022-12-17T16:23:35.927Z,5.00
2022-12-17T16:26:38.189Z,5.80
2022-12-17T16:29:39.955Z,5.30
2022-12-17T16:32:41.611Z,5.50
2022-12-17T16:35:50.452Z,6.00
2022-12-17T16:38:53.326Z,6.30
2022-12-17T16:41:54.882Z,6.30
2022-12-17T16:44:56.395Z,6.90
2022-12-17T16:47:57.896Z,7.10
2022-12-17T16:50:59.440Z,5.00
2022-12-17T16:54:03.878Z,5.10
2022-12-17T16:57:05.480Z,5.10
2022-12-17T17:00:07.607Z,5.60
2022-12-17T17:03:09.440Z,5.80
2022-12-17T17:06:11.139Z,8.80
2022-12-17T17:09:13.300Z,5.90
2022-12-17T17:12:14.857Z,6.10
2022-12-17T17:15:16.415Z,5.70
2022-12-17T17:18:24.762Z,5.70
2022-12-17T17:21:31.098Z,12.10
2022-12-17T17:24:32.641Z,7.70
2022-12-17T17:27:34.304Z,6.90
2022-12-17T17:30:35.875Z,5.00
2022-12-17T17:33:39.581Z,4.80
2022-12-17T17:36:41.813Z,6.80
2022-12-17T17:39:43.534Z,5.90
2022-12-17T17:42:50.131Z,5.70
2022-12-17T17:45:53.397Z,5.50
2022-12-17T17:48:57.104Z,6.60
2022-12-17T17:52:14.117Z,5.50
2022-12-17T17:55:15.664Z,6.20
2022-12-17T17:58:17.432Z,6.80
2022-12-17T18:01:21.006Z,5.80
2022-12-17T18:04:24.370Z,6.30
2022-12-17T18:07:27.470Z,7.20
2022-12-17T18:10:29.632Z,7.70
2022-12-17T18:13:50.424Z,6.60
2022-12-17T18:16:52.012Z,8.50
2022-12-17T18:19:53.568Z,6.50
2022-12-17T18:22:55.185Z,5.60
2022-12-17T18:25:56.743Z,5.10
2022-12-17T18:29:02.999Z,6.20
2022-12-17T18:32:05.536Z,8.00
2022-12-17T18:35:07.556Z,7.10
2022-12-17T18:38:09.111Z,5.80
2022-12-17T18:41:30.955Z,7.00
2022-12-17T18:44:33.051Z,6.10
2022-12-17T18:47:34.673Z,5.00
2022-12-17T18:50:36.220Z,5.60
2022-12-17T18:53:37.992Z,7.10
2022-12-17T18:57:00.695Z,6.60
2022-12-17T19:00:01.279Z,7.40
2022-12-17T19:03:04.532Z,6.80
2022-12-17T19:06:06.558Z,5.10
2022-12-17T19:09:08.327Z,5.40
2022-12-17T19:12:10.319Z,6.50
2022-12-17T19:15:11.893Z,4.90
2022-12-17T19:18:13.531Z,4.90
2022-12-17T19:21:22.286Z,4.50
2022-12-17T19:24:24.326Z,4.70
2022-12-17T19:27:25.941Z,5.00
2022-12-17T19:30:27.484Z,5.00
2022-12-17T19:33:28.959Z,6.00
2022-12-17T19:36:30.471Z,6.00
2022-12-17T19:39:32.178Z,6.80
2022-12-17T19:42:37.299Z,5.90
2022-12-17T19:45:39.839Z,7.60
2022-12-17T19:48:47.975Z,6.30
2022-12-17T19:51:50.277Z,6.90
2022-12-17T19:54:52.552Z,5.00
2022-12-17T19:57:54.095Z,5.80
2022-12-17T20:01:05.008Z,7.10
2022-12-17T20:04:07.052Z,7.50
2022-12-17T20:07:08.585Z,9.20
2022-12-17T20:10:10.172Z,32.20
2022-12-17T20:13:11.899Z,14.90
2022-12-17T20:16:16.594Z,18.60
2022-12-17T20:22:19.877Z,11.00
2022-12-17T20:25:21.640Z,18.00
2022-12-17T20:28:23.188Z,18.90
2022-12-17T20:31:25.211Z,21.20
2022-12-17T20:34:27.273Z,20.80
2022-12-17T20:37:28.996Z,11.40
2022-12-17T20:40:30.566Z,8.20
2022-12-17T20:43:32.081Z,6.20
2022-12-17T20:46:34.896Z,12.50
2022-12-17T20:49:36.659Z,7.20
2022-12-17T20:52:38.153Z,6.40
2022-12-17T20:55:39.773Z,5.00
2022-12-17T20:58:42.664Z,5.00
2022-12-17T21:01:44.984Z,4.60
2022-12-17T21:04:49.571Z,5.40
2022-12-17T21:07:51.840Z,5.90
2022-12-17T21:10:56.070Z,6.40
2022-12-17T21:13:57.828Z,7.40
2022-12-17T21:17:00.669Z,7.00
2022-12-17T21:20:07.373Z,8.50
2022-12-17T21:23:11.469Z,7.90
2022-12-17T21:26:15.111Z,10.40
2022-12-17T21:29:17.475Z,8.30
2022-12-17T21:32:19.090Z,7.10
2022-12-17T21:35:20.887Z,6.60
2022-12-17T21:38:22.818Z,7.10
2022-12-17T21:41:26.113Z,6.80
2022-12-17T21:44:27.767Z,5.90
2022-12-17T21:47:29.392Z,8.30
2022-12-17T21:50:31.060Z,9.80
2022-12-17T21:53:32.658Z,12.00
2022-12-17T21:56:34.223Z,7.20
2022-12-17T21:59:35.728Z,6.80
2022-12-17T22:02:37.337Z,9.90
2022-12-17T22:05:39.085Z,10.90
2022-12-17T22:08:41.277Z,10.50
2022-12-17T22:11:43.658Z,21.80
2022-12-17T22:14:46.758Z,12.00
2022-12-17T22:17:48.447Z,10.50
2022-12-17T22:20:57.068Z,10.50
2022-12-17T22:23:58.678Z,10.20
2022-12-17T22:27:00.695Z,8.50
2022-12-17T22:30:21.196Z,11.50
2022-12-17T22:34:05.686Z,11.40
2022-12-17T22:38:27.656Z,10.70
2022-12-17T22:43:37.881Z,10.20
2022-12-17T22:44:49.498Z,11.30
2022-12-17T22:46:52.801Z,11.80
2022-12-17T22:49:54.509Z,8.20
2022-12-17T22:52:56.886Z,8.60
2022-12-17T22:56:12.381Z,7.80
2022-12-17T22:59:18.741Z,6.30
2022-12-17T23:02:20.455Z,7.70
2022-12-17T23:05:22.981Z,6.60
2022-12-17T23:08:24.539Z,7.80
2022-12-17T23:11:27.119Z,7.40
2022-12-17T23:14:28.760Z,8.50
2022-12-17T23:17:30.288Z,12.40
2022-12-17T23:20:33.003Z,11.10
2022-12-17T23:23:34.767Z,14.90
2022-12-17T23:26:37.157Z,12.40
2022-12-17T23:29:38.711Z,10.50
2022-12-17T23:32:40.281Z,12.30
2022-12-17T23:35:41.870Z,12.20
2022-12-17T23:38:44.213Z,11.20
2022-12-17T23:41:45.707Z,14.30
2022-12-17T23:44:47.173Z,11.30
2022-12-17T23:47:48.677Z,12.90
2022-12-17T23:50:51.557Z,13.80
2022-12-17T23:53:53.222Z,11.10
2022-12-17T23:56:54.720Z,8.00
2022-12-17T23:59:56.167Z,7.10
